Hauptseite
METAR-TAF:

METAR-TAF

Flughäfen :

Bückeburg, Deutschland

Heeresflugplatz Bückeburg

Breite: 52-17N, Länge: 009-05E, Höhe: 70 m

Beobachtung

Neuester Wetterbericht von vor 32 Minuten, um 06:20 UTC
Wind 2 kt aus Nordost
Temperatur 11°C
Luftfeuchtigkeit 76%
Luftdruck 1015 hPa
Sichtweite 10 km oder mehr
Leicht bewölkt in der Höhe von 6000 ft

METAR: ETHB 220620Z 05002KT 9999 FEW060 11/07 Q1015 BLU+

Zeit: 08:52 (06:52 UTC)


TAF: fehlend

Wetterbeobachtungen und Prognosen von mehr als 4000 Flughäfen (METAR und TAF Bericht).

Die verfügbaren Stationen werden durch gelbe und rote Markierungen auf der Karte dargestellt.

Führen Sie die Maus auf sie, um den Namen der Station zu sehen.

Darauf klicken, um die Beobachtung von Wetterbeobachtungen und Prognosen zu sehen.

Um die Karte zu ändern : klicken Sie auf den grünen Tasten mit einem schwarzen Kreuz Zum Vergrößern, auf den grünen Button mit einem Gedankenstrich zu verkleinern, oder auf die grünen Pfeile für benachbarte Karten.


METAR-TAF: